Time;durP1;ratioP1;P1;durP2;ratioP2;P2;SDS_P1;SDS_P2;PMS_P1;PMS_P2;Temp;Humidity;BMP_temperature;BMP_pressure;BME280_temperature;BME280_humidity;BME280_pressure;Samples;Min_cycle;Max_cycle;Signal;HPM_P1;HPM_P2
2022/01/14 00:00:21;;;;;;;0.50;0.10;;;3.60;1.00;;;;;;5086593;28;21026;-79
2022/01/14 00:02:50;;;;;;;0.50;0.10;;;3.60;1.00;;;;;;5092076;28;20460;-80
2022/01/14 00:05:18;;;;;;;0.50;0.10;;;3.60;1.00;;;;;;5093505;28;20546;-78
2022/01/14 00:07:46;;;;;;;0.50;0.10;;;3.60;1.00;;;;;;5087308;28;20477;-79
2022/01/14 00:10:14;;;;;;;0.50;0.10;;;3.60;1.00;;;;;;5085523;28;20978;-79
2022/01/14 00:12:51;;;;;;;0.50;0.10;;;3.60;1.00;;;;;;5087452;28;20513;-79
2022/01/14 00:15:26;;;;;;;0.50;0.20;;;3.70;1.00;;;;;;5077377;28;20505;-78
2022/01/14 00:17:56;;;;;;;0.50;0.10;;;;;;;;;;5074369;28;20456;-78
2022/01/14 00:20:24;;;;;;;0.60;0.33;;;3.70;1.00;;;;;;5057632;28;20452;-78
2022/01/14 00:22:52;;;;;;;0.50;0.10;;;3.60;1.00;;;;;;5056525;28;20545;-79
2022/01/14 00:33:34;;;;;;;0.50;0.10;;;3.50;1.00;;;;;;5046404;28;20504;-79
2022/01/14 00:36:03;;;;;;;0.50;0.10;;;3.60;1.00;;;;;;5094054;28;20580;-79
2022/01/14 00:38:30;;;;;;;0.50;0.10;;;3.50;1.00;;;;;;5088028;28;20467;-79
2022/01/14 00:40:59;;;;;;;0.60;0.20;;;3.60;1.00;;;;;;5079136;28;20452;-79
2022/01/14 00:43:27;;;;;;;0.50;0.10;;;3.60;1.00;;;;;;5079340;28;20536;-79
2022/01/14 00:45:55;;;;;;;0.50;0.10;;;3.60;1.00;;;;;;5077522;28;20436;-79
2022/01/14 00:48:23;;;;;;;0.50;0.10;;;3.60;1.00;;;;;;5079434;28;20506;-78
2022/01/14 00:50:53;;;;;;;0.50;0.10;;;3.50;1.00;;;;;;5081668;28;20454;-79
2022/01/14 00:53:21;;;;;;;0.50;0.10;;;3.50;1.00;;;;;;5078435;28;20999;-79
2022/01/14 00:55:58;;;;;;;0.50;0.10;;;3.50;1.00;;;;;;5061967;28;20456;-79
2022/01/14 01:01:12;;;;;;;0.50;0.20;;;3.50;1.00;;;;;;5060685;28;20536;-79
2022/01/14 01:03:40;;;;;;;0.50;0.10;;;3.60;1.00;;;;;;5078757;28;20539;-79
2022/01/14 01:06:10;;;;;;;0.50;0.10;;;3.50;1.00;;;;;;5080820;28;20444;-79
2022/01/14 01:08:38;;;;;;;0.50;0.10;;;3.50;1.00;;;;;;5080295;28;20491;-79
2022/01/14 01:11:10;;;;;;;0.60;0.10;;;3.50;1.00;;;;;;5080401;28;20441;-79
2022/01/14 01:13:43;;;;;;;0.50;0.10;;;3.40;1.00;;;;;;5081385;28;20503;-78
2022/01/14 01:16:11;;;;;;;0.50;0.10;;;3.40;1.00;;;;;;5080774;28;20451;-78
2022/01/14 01:18:39;;;;;;;0.50;0.10;;;3.50;1.00;;;;;;5069903;28;20466;-79
2022/01/14 01:21:08;;;;;;;2.00;1.90;;;3.50;1.00;;;;;;5050764;28;20458;-79
2022/01/14 01:23:36;;;;;;;0.50;0.10;;;3.50;1.00;;;;;;5061670;28;20806;-80
2022/01/14 01:26:11;;;;;;;0.50;0.10;;;3.50;1.00;;;;;;5051430;28;20447;-79
2022/01/14 01:28:53;;;;;;;0.50;0.10;;;3.40;1.00;;;;;;5063336;28;20474;-78
2022/01/14 01:31:37;;;;;;;0.50;0.10;;;3.40;1.00;;;;;;5064520;28;20434;-79
2022/01/14 01:34:08;;;;;;;0.50;0.10;;;3.40;1.00;;;;;;5060757;28;20449;-80
2022/01/14 01:36:38;;;;;;;0.50;0.10;;;3.50;1.00;;;;;;5039757;28;20457;-80
2022/01/14 01:39:08;;;;;;;0.50;0.20;;;3.50;1.00;;;;;;5043411;28;20436;-78
2022/01/14 01:41:38;;;;;;;0.50;0.10;;;3.50;1.00;;;;;;5048180;28;20534;-79
2022/01/14 01:44:07;;;;;;;0.50;0.10;;;3.60;1.00;;;;;;5039041;28;20482;-79
2022/01/14 01:46:37;;;;;;;0.50;0.10;;;3.60;1.00;;;;;;5045154;28;20439;-80
2022/01/14 01:49:06;;;;;;;0.50;0.33;;;3.60;1.00;;;;;;5049714;28;20451;-79
2022/01/14 01:51:35;;;;;;;0.50;0.10;;;3.60;1.00;;;;;;5053899;28;20516;-79
2022/01/14 01:54:04;;;;;;;0.50;0.10;;;3.60;1.00;;;;;;5051094;28;20490;-80
2022/01/14 01:56:32;;;;;;;0.50;0.10;;;3.60;1.00;;;;;;5063157;28;20456;-79
2022/01/14 01:59:00;;;;;;;0.50;0.10;;;3.60;1.00;;;;;;5044355;28;20463;-79
2022/01/14 02:01:28;;;;;;;0.50;0.10;;;3.60;1.00;;;;;;5039612;28;21014;-78
2022/01/14 02:03:57;;;;;;;0.50;0.10;;;3.70;1.00;;;;;;5037209;28;20466;-78
2022/01/14 02:06:25;;;;;;;0.50;0.10;;;3.70;1.00;;;;;;5035800;28;20887;-77
2022/01/14 02:08:53;;;;;;;0.50;0.20;;;3.70;1.00;;;;;;5036723;28;20503;-77
2022/01/14 02:11:24;;;;;;;0.60;0.30;;;3.70;1.00;;;;;;5041327;28;20466;-79
2022/01/14 02:13:55;;;;;;;0.50;0.10;;;3.70;1.00;;;;;;5079322;28;20531;-79
2022/01/14 02:16:33;;;;;;;0.50;0.10;;;3.70;1.00;;;;;;5061431;28;20427;-79
2022/01/14 02:19:15;;;;;;;0.50;0.10;;;3.60;1.00;;;;;;5074410;28;20446;-79
2022/01/14 02:24:56;;;;;;;0.60;0.30;;;3.60;1.00;;;;;;5057875;28;20541;-79
2022/01/14 02:27:25;;;;;;;0.50;0.10;;;3.60;1.00;;;;;;5069711;28;20493;-78
2022/01/14 02:29:53;;;;;;;0.50;0.10;;;3.60;1.00;;;;;;5076619;28;20456;-78
2022/01/14 02:32:21;;;;;;;0.50;0.10;;;3.60;1.00;;;;;;5076500;28;20909;-78
2022/01/14 02:34:49;;;;;;;0.50;0.10;;;3.50;1.00;;;;;;5076881;28;20469;-79
2022/01/14 02:37:38;;;;;;;0.50;0.10;;;3.50;1.00;;;;;;5077228;28;20880;-78
2022/01/14 02:40:07;;;;;;;0.50;0.10;;;3.50;1.00;;;;;;5085419;28;20434;-79
2022/01/14 02:42:35;;;;;;;0.50;0.10;;;3.40;1.00;;;;;;5056799;28;20533;-79
2022/01/14 02:46:08;;;;;;;0.50;0.10;;;3.40;1.00;;;;;;5094941;27;20578;-79
2022/01/14 02:48:36;;;;;;;0.50;0.20;;;3.40;1.00;;;;;;5100332;28;20471;-79
2022/01/14 02:51:11;;;;;;;0.50;0.10;;;3.40;1.00;;;;;;5101935;28;20453;-80
2022/01/14 02:53:55;;;;;;;0.50;0.10;;;3.30;1.00;;;;;;5103162;28;20547;-79
2022/01/14 02:56:29;;;;;;;0.50;0.10;;;3.30;1.00;;;;;;5109936;28;20447;-79
2022/01/14 02:59:00;;;;;;;2.57;2.43;;;3.30;1.00;;;;;;5113885;28;20440;-80
2022/01/14 03:01:30;;;;;;;0.50;0.10;;;3.50;1.00;;;;;;5108122;28;20517;-79
2022/01/14 03:04:01;;;;;;;0.50;0.20;;;3.40;1.00;;;;;;5099982;28;20471;-79
2022/01/14 03:06:30;;;;;;;0.60;0.30;;;3.40;1.00;;;;;;5103601;28;20454;-78
2022/01/14 03:08:59;;;;;;;0.50;0.10;;;3.50;1.00;;;;;;5106851;28;20471;-79
2022/01/14 03:11:31;;;;;;;0.50;0.10;;;3.40;1.00;;;;;;5099391;28;20528;-79
2022/01/14 03:14:00;;;;;;;0.50;0.20;;;3.40;1.00;;;;;;5101064;28;20890;-80
2022/01/14 03:16:37;;;;;;;0.73;0.73;;;3.40;1.00;;;;;;5095593;28;20457;-79
2022/01/14 03:19:08;;;;;;;0.50;0.10;;;3.50;1.00;;;;;;5099637;28;20457;-79
2022/01/14 03:21:40;;;;;;;0.50;0.10;;;3.40;1.00;;;;;;5105460;28;20421;-79
2022/01/14 03:24:21;;;;;;;0.50;0.10;;;3.50;1.00;;;;;;5097236;28;20835;-79
2022/01/14 03:26:52;;;;;;;0.50;0.10;;;3.40;1.00;;;;;;5099909;28;20469;-78
2022/01/14 03:29:21;;;;;;;0.50;0.10;;;3.40;1.00;;;;;;5099818;28;20449;-79
2022/01/14 03:31:50;;;;;;;0.50;0.10;;;3.40;1.00;;;;;;5099824;28;20461;-79
2022/01/14 03:34:18;;;;;;;0.50;0.10;;;3.40;1.00;;;;;;5099239;28;21029;-78
2022/01/14 03:36:46;;;;;;;0.50;0.10;;;3.40;1.00;;;;;;5094167;28;20997;-78
2022/01/14 03:39:16;;;;;;;0.50;0.10;;;3.30;1.00;;;;;;5098017;28;20449;-79
2022/01/14 03:41:44;;;;;;;1.80;1.70;;;3.30;1.00;;;;;;5095476;28;20413;-78
2022/01/14 03:44:12;;;;;;;0.50;0.20;;;3.40;1.00;;;;;;5094139;28;20482;-78
2022/01/14 03:46:40;;;;;;;0.50;0.10;;;3.20;1.00;;;;;;5096494;28;20857;-79
2022/01/14 03:49:10;;;;;;;0.50;0.10;;;3.20;1.00;;;;;;5081978;28;20438;-78
2022/01/14 03:51:38;;;;;;;0.50;0.10;;;3.20;1.00;;;;;;5075531;28;20458;-78
2022/01/14 03:54:06;;;;;;;0.50;0.10;;;3.20;1.00;;;;;;5077532;28;20466;-79
2022/01/14 03:56:34;;;;;;;0.60;0.20;;;3.20;1.00;;;;;;5071509;28;20435;-79
2022/01/14 03:59:03;;;;;;;0.50;0.10;;;3.20;1.00;;;;;;5066256;28;20477;-79
2022/01/14 04:01:33;;;;;;;0.50;0.10;;;3.20;1.00;;;;;;5087983;28;20437;-79
2022/01/14 04:04:01;;;;;;;0.50;0.10;;;3.20;1.00;;;;;;5097151;28;20472;-79
2022/01/14 04:06:30;;;;;;;0.50;0.10;;;3.20;1.00;;;;;;5089023;28;20525;-79
2022/01/14 04:08:58;;;;;;;0.50;0.10;;;3.20;1.00;;;;;;5082050;28;20450;-78
2022/01/14 04:11:26;;;;;;;0.50;0.10;;;3.20;1.00;;;;;;5083209;28;20446;-79
2022/01/14 04:13:56;;;;;;;0.50;0.10;;;3.30;1.00;;;;;;5073704;28;20481;-79
2022/01/14 04:16:25;;;;;;;0.50;0.10;;;3.20;1.00;;;;;;5061625;28;20523;-79
2022/01/14 04:18:54;;;;;;;9.33;3.23;;;3.30;1.00;;;;;;5062569;28;20454;-78
2022/01/14 04:21:22;;;;;;;0.50;0.10;;;3.20;1.00;;;;;;5064090;28;20963;-77
2022/01/14 04:23:51;;;;;;;0.50;0.20;;;3.20;1.00;;;;;;5074794;28;20476;-79
2022/01/14 04:26:19;;;;;;;0.50;0.10;;;3.20;1.00;;;;;;5057946;28;20545;-77
2022/01/14 04:28:47;;;;;;;0.50;0.10;;;3.20;1.00;;;;;;5076021;28;20483;-78
2022/01/14 04:31:15;;;;;;;0.50;0.10;;;3.20;1.00;;;;;;5078092;28;20414;-79
2022/01/14 04:33:43;;;;;;;0.50;0.10;;;3.20;1.00;;;;;;5078487;28;20473;-79
2022/01/14 04:36:11;;;;;;;0.50;0.10;;;3.20;1.00;;;;;;5078781;28;20462;-78
2022/01/14 04:38:39;;;;;;;0.50;0.10;;;3.20;1.00;;;;;;5078048;28;20967;-79
2022/01/14 04:41:09;;;;;;;0.50;0.10;;;3.30;1.00;;;;;;5073507;28;20576;-79
2022/01/14 04:43:38;;;;;;;0.50;0.10;;;3.30;1.00;;;;;;5058486;28;20463;-78
2022/01/14 04:48:52;;;;;;;0.50;0.30;;;3.20;1.00;;;;;;5061158;28;20486;-78
2022/01/14 04:51:21;;;;;;;2.93;1.70;;;3.20;1.00;;;;;;5058395;28;20442;-78
2022/01/14 04:53:49;;;;;;;0.50;0.10;;;3.20;1.00;;;;;;5057134;28;20481;-78
2022/01/14 04:56:19;;;;;;;0.50;0.10;;;3.20;1.00;;;;;;5056846;28;20466;-78
2022/01/14 04:58:46;;;;;;;0.50;0.10;;;3.20;1.00;;;;;;5064797;28;20452;-78
2022/01/14 05:01:14;;;;;;;0.50;0.10;;;3.10;1.00;;;;;;5059223;28;20447;-78
2022/01/14 05:03:43;;;;;;;1.33;1.23;;;3.00;1.00;;;;;;5058709;28;21007;-78
2022/01/14 05:06:11;;;;;;;0.50;0.30;;;3.00;1.00;;;;;;5059171;28;20496;-78
2022/01/14 05:08:40;;;;;;;0.50;0.10;;;2.90;1.00;;;;;;5077367;28;20477;-78
2022/01/14 05:11:23;;;;;;;0.50;0.10;;;2.80;1.00;;;;;;5077375;28;20450;-78
2022/01/14 05:13:52;;;;;;;0.50;0.10;;;2.80;1.00;;;;;;5062007;28;20470;-78
2022/01/14 05:16:20;;;;;;;0.50;0.10;;;2.80;1.00;;;;;;5063262;28;20439;-78
2022/01/14 05:18:48;;;;;;;0.50;0.10;;;2.90;1.00;;;;;;5071750;28;20443;-78
2022/01/14 05:21:17;;;;;;;1.63;1.53;;;2.90;1.00;;;;;;5080370;28;20537;-78
2022/01/14 05:23:45;;;;;;;0.50;0.10;;;2.90;1.00;;;;;;5079348;28;20908;-77
2022/01/14 05:26:13;;;;;;;0.50;0.10;;;2.90;1.00;;;;;;5076986;28;21004;-77
2022/01/14 05:28:40;;;;;;;0.50;0.10;;;2.90;1.00;;;;;;5077437;28;20446;-79
2022/01/14 05:31:10;;;;;;;0.50;0.10;;;2.90;1.00;;;;;;5072381;28;20469;-79
2022/01/14 05:33:39;;;;;;;0.50;0.10;;;2.90;1.00;;;;;;5067097;28;20477;-78
2022/01/14 05:36:08;;;;;;;0.50;0.10;;;2.90;1.00;;;;;;5077927;28;20434;-79
2022/01/14 05:38:35;;;;;;;0.50;0.10;;;2.90;1.00;;;;;;5083362;28;20454;-78
2022/01/14 05:41:04;;;;;;;0.50;0.10;;;2.90;1.00;;;;;;5089259;28;20437;-78
2022/01/14 05:43:32;;;;;;;0.60;0.10;;;2.90;1.00;;;;;;5083054;28;20463;-79
2022/01/14 05:45:59;;;;;;;0.50;0.20;;;2.80;1.00;;;;;;5070015;28;20478;-78
2022/01/14 05:48:29;;;;;;;0.50;0.10;;;2.90;1.00;;;;;;5067982;28;20450;-78
2022/01/14 05:50:57;;;;;;;0.73;0.73;;;2.90;1.00;;;;;;5058726;28;20455;-78
2022/01/14 05:53:25;;;;;;;0.50;0.10;;;2.90;1.00;;;;;;5060604;28;20474;-79
2022/01/14 05:55:53;;;;;;;0.50;0.10;;;2.80;1.00;;;;;;5078848;28;20452;-78
2022/01/14 05:58:22;;;;;;;0.50;0.10;;;2.90;1.00;;;;;;5073666;28;20855;-78
2022/01/14 06:00:49;;;;;;;0.50;0.10;;;2.80;1.00;;;;;;5079285;28;20472;-79
2022/01/14 06:03:18;;;;;;;0.60;0.40;;;2.80;1.00;;;;;;5085719;28;20746;-78
2022/01/14 06:05:48;;;;;;;3.90;2.70;;;2.80;1.00;;;;;;5088336;28;20489;-78
2022/01/14 06:08:16;;;;;;;1.43;0.87;;;2.70;1.00;;;;;;5087891;28;20427;-79
2022/01/14 06:10:46;;;;;;;0.50;0.10;;;2.50;1.00;;;;;;5088207;28;20437;-79
2022/01/14 06:13:14;;;;;;;0.50;0.10;;;2.50;1.00;;;;;;5063518;28;21166;-79
2022/01/14 06:15:42;;;;;;;0.50;0.10;;;2.40;1.00;;;;;;5058141;28;20529;-79
2022/01/14 06:18:10;;;;;;;0.50;0.10;;;2.40;1.00;;;;;;5058360;28;20453;-79
2022/01/14 06:20:38;;;;;;;0.50;0.10;;;2.50;1.00;;;;;;5058146;28;20514;-79
2022/01/14 06:23:08;;;;;;;0.50;0.10;;;2.50;1.00;;;;;;5078985;28;20458;-79
2022/01/14 06:25:36;;;;;;;0.50;0.10;;;2.50;1.00;;;;;;5072304;28;20449;-79
2022/01/14 06:28:05;;;;;;;0.50;0.10;;;2.60;1.00;;;;;;5069290;28;20441;-79
2022/01/14 06:30:33;;;;;;;0.50;0.10;;;2.60;1.00;;;;;;5068547;28;20797;-79
2022/01/14 06:33:02;;;;;;;0.50;0.20;;;2.70;1.00;;;;;;5079885;28;20418;-79
2022/01/14 06:35:30;;;;;;;5.00;2.30;;;2.70;1.00;;;;;;5093114;28;20454;-78
2022/01/14 06:37:59;;;;;;;0.50;0.10;;;2.60;1.00;;;;;;5083373;28;20418;-77
2022/01/14 06:40:32;;;;;;;0.50;0.10;;;2.50;1.00;;;;;;5073739;28;20476;-79
2022/01/14 06:43:00;;;;;;;0.50;0.10;;;2.50;1.00;;;;;;5082390;28;20434;-78
2022/01/14 06:45:28;;;;;;;0.50;0.10;;;2.60;1.00;;;;;;5079253;28;20484;-78
2022/01/14 06:47:56;;;;;;;0.50;0.10;;;3.70;1.00;;;;;;5077080;28;20491;-78
2022/01/14 06:50:24;;;;;;;0.50;0.10;;;2.60;1.00;;;;;;5077795;28;20869;-78
2022/01/14 06:52:52;;;;;;;0.50;0.10;;;2.60;1.00;;;;;;5075654;28;20468;-78
2022/01/14 06:55:20;;;;;;;0.50;0.10;;;2.70;1.00;;;;;;5075817;28;20461;-79
2022/01/14 06:57:50;;;;;;;0.50;0.10;;;2.70;1.00;;;;;;5079273;28;20525;-79
2022/01/14 07:00:19;;;;;;;2.50;0.43;;;2.70;1.00;;;;;;5064378;28;20815;-80
2022/01/14 07:02:47;;;;;;;0.50;0.10;;;2.70;1.00;;;;;;5061405;28;20457;-79
2022/01/14 07:05:16;;;;;;;0.50;0.10;;;2.70;1.00;;;;;;5063013;28;20498;-79
2022/01/14 07:07:44;;;;;;;0.50;0.10;;;2.70;1.00;;;;;;5073673;28;20573;-79
2022/01/14 07:10:14;;;;;;;0.50;0.10;;;2.70;1.00;;;;;;5080916;28;20820;-81
2022/01/14 07:12:44;;;;;;;1.20;1.10;;;2.70;1.00;;;;;;5075178;28;20449;-79
2022/01/14 07:15:15;;;;;;;0.50;0.20;;;2.70;1.00;;;;;;5070274;28;20478;-79
2022/01/14 07:17:44;;;;;;;0.50;0.10;;;2.70;1.00;;;;;;5063600;28;20533;-79
2022/01/14 07:20:14;;;;;;;0.50;0.10;;;2.80;1.00;;;;;;5077102;28;20433;-79
2022/01/14 07:22:45;;;;;;;0.50;0.10;;;2.80;1.00;;;;;;5086985;28;20937;-79
2022/01/14 07:25:18;;;;;;;0.50;0.10;;;2.80;1.00;;;;;;5088046;28;20524;-79
2022/01/14 07:27:46;;;;;;;0.50;0.10;;;2.80;1.00;;;;;;5080556;28;20823;-79
2022/01/14 07:30:16;;;;;;;0.50;0.10;;;2.80;1.00;;;;;;5079636;28;20526;-79
2022/01/14 07:32:44;;;;;;;0.50;0.10;;;2.90;1.00;;;;;;5084460;28;20465;-78
2022/01/14 07:35:13;;;;;;;0.50;0.10;;;2.80;1.00;;;;;;5092628;28;20513;-79
2022/01/14 07:37:41;;;;;;;0.50;0.10;;;2.80;1.00;;;;;;5096557;28;20425;-78
2022/01/14 07:40:09;;;;;;;0.50;0.10;;;2.80;1.00;;;;;;5090784;28;20443;-79
2022/01/14 07:42:38;;;;;;;0.50;0.10;;;2.80;1.00;;;;;;5074719;28;20422;-78
2022/01/14 07:45:07;;;;;;;1.13;1.13;;;;;;;;;;5072823;28;20477;-79
2022/01/14 07:47:36;;;;;;;2.70;2.60;;;2.80;1.00;;;;;;5072216;28;20488;-79
2022/01/14 07:50:05;;;;;;;0.50;0.10;;;2.90;1.00;;;;;;5065545;28;20442;-79
2022/01/14 07:52:33;;;;;;;0.50;0.10;;;2.90;1.00;;;;;;5086445;28;20454;-79
2022/01/14 07:55:01;;;;;;;0.50;0.10;;;2.90;1.00;;;;;;5091913;28;20805;-79
2022/01/14 07:57:29;;;;;;;0.50;0.10;;;2.90;1.00;;;;;;5085439;28;20564;-79
2022/01/14 07:59:57;;;;;;;0.50;0.10;;;2.90;1.00;;;;;;5087106;28;20479;-79
2022/01/14 08:02:27;;;;;;;0.50;0.10;;;2.90;1.00;;;;;;5088238;28;20472;-79
2022/01/14 08:04:57;;;;;;;0.50;0.10;;;;;;;;;;5090227;28;20453;-80
2022/01/14 08:07:28;;;;;;;2.83;2.63;;;2.90;1.00;;;;;;5088972;28;20544;-79
2022/01/14 08:09:56;;;;;;;0.50;0.10;;;2.80;1.00;;;;;;5087841;28;20468;-79
2022/01/14 08:12:24;;;;;;;0.70;0.70;;;2.50;1.00;;;;;;5087746;28;20458;-80
2022/01/14 08:14:52;;;;;;;0.50;0.10;;;2.50;1.00;;;;;;5084239;28;20495;-80
2022/01/14 08:17:21;;;;;;;0.50;0.10;;;2.50;1.00;;;;;;5078341;28;20449;-80
2022/01/14 08:19:49;;;;;;;0.50;0.10;;;2.50;1.00;;;;;;5083826;28;20459;-79
2022/01/14 08:22:18;;;;;;;0.50;0.10;;;2.50;1.00;;;;;;5085821;28;20466;-80
2022/01/14 08:24:46;;;;;;;0.50;0.10;;;2.50;1.00;;;;;;5083932;28;20540;-79
2022/01/14 08:27:14;;;;;;;0.50;0.10;;;2.50;1.00;;;;;;5079707;28;20566;-77
2022/01/14 08:29:47;;;;;;;0.50;0.10;;;2.50;1.00;;;;;;5077509;28;20460;-79
2022/01/14 08:32:17;;;;;;;0.50;0.10;;;2.90;1.00;;;;;;5079697;28;20453;-81
2022/01/14 08:34:45;;;;;;;0.50;0.10;;;2.80;1.00;;;;;;5079732;28;20470;-79
2022/01/14 08:37:18;;;;;;;0.50;0.20;;;;;;;;;;5089629;28;20466;-81
2022/01/14 08:39:46;;;;;;;0.50;0.10;;;2.90;1.00;;;;;;5092444;28;20484;-79
2022/01/14 08:42:15;;;;;;;1.43;0.93;;;2.90;1.00;;;;;;5094572;28;20453;-79
2022/01/14 08:44:43;;;;;;;0.50;0.10;;;2.90;1.00;;;;;;5081745;28;20491;-79
2022/01/14 08:47:12;;;;;;;0.50;0.10;;;2.90;1.00;;;;;;5080911;28;20488;-79
2022/01/14 08:49:41;;;;;;;0.50;0.10;;;2.90;1.00;;;;;;5062839;28;20518;-79
2022/01/14 08:52:10;;;;;;;0.50;0.10;;;2.90;1.00;;;;;;5063797;28;20525;-79
2022/01/14 08:54:40;;;;;;;0.50;0.20;;;2.90;1.00;;;;;;5067573;28;20541;-77
2022/01/14 08:57:08;;;;;;;0.50;0.10;;;2.90;1.00;;;;;;5074277;28;20518;-80
2022/01/14 08:59:37;;;;;;;0.50;0.10;;;2.90;1.00;;;;;;5071722;28;20514;-81
2022/01/14 09:02:05;;;;;;;0.50;0.10;;;2.70;1.00;;;;;;5075079;28;20439;-79
2022/01/14 09:04:35;;;;;;;0.50;0.10;;;2.70;1.00;;;;;;5075790;28;20485;-78
2022/01/14 09:07:04;;;;;;;0.50;0.10;;;2.70;1.00;;;;;;5074303;28;20514;-79
2022/01/14 09:09:35;;;;;;;0.50;0.10;;;2.70;1.00;;;;;;5067318;28;20930;-78
2022/01/14 09:12:06;;;;;;;0.50;0.33;;;2.70;1.00;;;;;;5062586;28;20427;-79
2022/01/14 09:14:34;;;;;;;0.50;0.10;;;2.70;1.00;;;;;;5076650;28;20473;-80
2022/01/14 09:17:03;;;;;;;0.50;0.10;;;2.70;1.00;;;;;;5079836;28;20454;-80
2022/01/14 09:19:31;;;;;;;0.50;0.10;;;2.70;1.00;;;;;;5069661;28;20509;-81
2022/01/14 09:21:59;;;;;;;0.50;0.10;;;2.80;1.00;;;;;;5060043;28;20446;-81
2022/01/14 09:24:44;;;;;;;0.50;0.10;;;2.80;1.00;;;;;;5058092;28;20493;-81
2022/01/14 09:27:14;;;;;;;0.53;0.27;;;2.80;1.00;;;;;;5063146;28;20460;-80
2022/01/14 09:29:44;;;;;;;0.50;0.10;;;2.80;1.00;;;;;;5077300;28;20940;-79
2022/01/14 09:32:12;;;;;;;0.60;0.53;;;2.80;1.00;;;;;;5072529;28;20529;-80
2022/01/14 09:34:40;;;;;;;0.50;0.10;;;2.80;1.00;;;;;;5072210;28;20470;-80
2022/01/14 09:37:08;;;;;;;0.50;0.10;;;2.70;1.00;;;;;;5061620;28;20482;-78
2022/01/14 09:39:37;;;;;;;0.50;0.10;;;2.70;1.00;;;;;;5071245;28;20482;-81
2022/01/14 09:42:07;;;;;;;0.50;0.10;;;3.50;1.00;;;;;;5079172;28;20437;-79
2022/01/14 09:44:36;;;;;;;0.50;0.10;;;2.80;1.00;;;;;;5076955;28;20473;-81
2022/01/14 09:47:05;;;;;;;0.50;0.10;;;2.80;1.00;;;;;;5078035;28;20465;-79
2022/01/14 09:49:33;;;;;;;0.50;0.10;;;2.80;1.00;;;;;;5077712;28;20891;-80
2022/01/14 09:52:02;;;;;;;0.50;0.10;;;2.90;1.00;;;;;;5066267;28;20450;-80
2022/01/14 09:54:30;;;;;;;0.50;0.10;;;2.80;1.00;;;;;;5070431;28;20477;-80
2022/01/14 09:56:58;;;;;;;0.77;0.77;;;3.00;1.00;;;;;;5082412;28;20537;-80
2022/01/14 09:59:26;;;;;;;0.50;0.10;;;3.00;1.00;;;;;;5087017;28;20438;-80
2022/01/14 10:01:57;;;;;;;0.50;0.10;;;;;;;;;;5093808;28;20476;-80
2022/01/14 10:04:25;;;;;;;0.50;0.10;;;3.00;1.00;;;;;;5093728;28;20465;-81
2022/01/14 10:06:55;;;;;;;0.50;0.10;;;3.10;1.00;;;;;;5088768;28;20452;-81
2022/01/14 10:09:25;;;;;;;0.50;0.10;;;3.10;1.00;;;;;;5071615;28;20502;-80
2022/01/14 10:12:02;;;;;;;0.50;0.10;;;3.20;1.00;;;;;;5070516;28;20427;-81
2022/01/14 10:14:31;;;;;;;0.50;0.10;;;3.20;1.00;;;;;;5071360;28;20521;-80
2022/01/14 10:17:06;;;;;;;0.50;0.10;;;3.30;1.00;;;;;;5067145;28;20424;-80
2022/01/14 10:19:37;;;;;;;0.50;0.10;;;3.40;1.00;;;;;;5063214;28;20463;-79
2022/01/14 10:22:20;;;;;;;0.50;0.10;;;3.40;1.00;;;;;;5059591;28;20466;-79
2022/01/14 10:24:59;;;;;;;0.60;0.50;;;3.40;1.00;;;;;;5058584;28;20502;-78
2022/01/14 10:27:32;;;;;;;0.50;0.20;;;3.40;1.00;;;;;;5057613;28;20454;-79
2022/01/14 10:30:09;;;;;;;0.60;0.27;;;3.40;1.00;;;;;;5058614;28;20494;-79
2022/01/14 10:32:40;;;;;;;0.50;0.10;;;3.40;1.00;;;;;;5057762;28;20458;-79
2022/01/14 10:35:10;;;;;;;0.50;0.10;;;3.50;1.00;;;;;;5058167;28;20464;-80
2022/01/14 10:37:43;;;;;;;0.50;0.10;;;3.50;1.00;;;;;;5059927;28;20461;-79
2022/01/14 10:40:16;;;;;;;0.60;0.30;;;3.60;1.00;;;;;;5064420;28;20693;-79
2022/01/14 10:42:46;;;;;;;0.50;0.10;;;3.60;1.00;;;;;;5068414;28;20541;-80
2022/01/14 10:45:22;;;;;;;0.60;0.20;;;3.70;1.00;;;;;;5062820;28;20478;-79
2022/01/14 10:47:57;;;;;;;0.50;0.10;;;3.70;1.00;;;;;;5076914;28;20965;-80
2022/01/14 10:50:34;;;;;;;0.70;0.70;;;3.80;1.00;;;;;;5078127;28;20448;-80
2022/01/14 10:53:07;;;;;;;0.50;0.10;;;3.90;1.00;;;;;;5070189;28;20457;-79
2022/01/14 10:55:38;;;;;;;0.50;0.10;;;3.90;1.00;;;;;;5080357;28;20440;-80
2022/01/14 10:58:14;;;;;;;0.50;0.10;;;3.80;1.00;;;;;;5087218;28;20450;-79
2022/01/14 11:00:48;;;;;;;0.50;0.10;;;3.90;1.00;;;;;;5086103;28;20440;-79
2022/01/14 11:03:33;;;;;;;0.50;0.10;;;3.90;1.00;;;;;;5087568;28;20485;-80
2022/01/14 11:06:17;;;;;;;0.50;0.10;;;3.90;1.00;;;;;;5087811;28;20479;-81
2022/01/14 11:08:46;;;;;;;0.50;0.10;;;3.70;1.00;;;;;;5086830;28;20489;-79
2022/01/14 11:11:15;;;;;;;0.50;0.10;;;3.70;1.00;;;;;;5085563;28;20444;-79
2022/01/14 11:13:45;;;;;;;0.50;0.10;;;3.70;1.00;;;;;;5083641;28;20485;-78
2022/01/14 11:16:13;;;;;;;0.50;0.10;;;3.70;1.00;;;;;;5082732;28;20512;-80
2022/01/14 11:18:43;;;;;;;0.50;0.10;;;3.70;1.00;;;;;;5094843;28;20871;-80
2022/01/14 11:23:57;;;;;;;0.50;0.10;;;3.60;1.00;;;;;;5083987;28;20522;-80
2022/01/14 11:26:32;;;;;;;0.50;0.10;;;3.50;1.00;;;;;;5066867;28;20483;-80
2022/01/14 11:29:06;;;;;;;0.50;0.10;;;3.60;1.00;;;;;;5071158;28;20478;-81
2022/01/14 11:31:36;;;;;;;0.70;0.43;;;3.60;1.00;;;;;;5081239;28;20440;-80
2022/01/14 11:34:07;;;;;;;0.50;0.20;;;3.50;1.00;;;;;;5081549;28;20466;-79
2022/01/14 11:36:53;;;;;;;1.23;1.13;;;3.60;1.00;;;;;;5070553;28;20458;-80
2022/01/14 11:39:29;;;;;;;0.50;0.20;;;3.60;1.00;;;;;;5075506;28;20470;-80
2022/01/14 11:41:59;;;;;;;0.50;0.10;;;3.50;1.00;;;;;;5072779;28;20463;-80
2022/01/14 11:44:58;;;;;;;0.50;0.10;;;3.50;1.00;;;;;;5076954;28;20504;-80
2022/01/14 11:48:02;;;;;;;0.50;0.10;;;3.50;1.00;;;;;;5075740;28;20485;-80
2022/01/14 11:50:49;;;;;;;0.50;0.10;;;3.60;1.00;;;;;;5077515;28;20473;-79
2022/01/14 11:53:41;;;;;;;0.50;0.10;;;3.50;1.00;;;;;;5082039;28;21006;-79
2022/01/14 11:56:46;;;;;;;5.80;1.90;;;3.50;1.00;;;;;;5080809;28;20943;-80
2022/01/14 11:59:46;;;;;;;0.50;0.20;;;3.40;1.00;;;;;;5081790;28;20456;-80
2022/01/14 12:02:39;;;;;;;0.50;0.13;;;3.30;1.00;;;;;;5078979;28;20455;-79
2022/01/14 12:05:14;;;;;;;0.50;0.10;;;3.40;1.00;;;;;;5066307;28;20489;-80
2022/01/14 12:08:21;;;;;;;0.50;0.10;;;3.40;1.00;;;;;;5085435;28;20446;-81
2022/01/14 12:11:17;;;;;;;0.50;0.10;;;3.60;1.00;;;;;;5091325;28;20870;-81
2022/01/14 12:13:55;;;;;;;0.50;0.10;;;3.60;1.00;;;;;;5094401;28;20465;-83
2022/01/14 12:16:39;;;;;;;0.50;0.10;;;3.50;1.00;;;;;;5094046;28;20466;-80
2022/01/14 12:19:12;;;;;;;0.60;0.40;;;6.00;1.00;;;;;;5082579;28;20443;-79
2022/01/14 12:21:58;;;;;;;0.50;0.20;;;3.80;1.00;;;;;;5073495;28;20458;-79
2022/01/14 12:24:37;;;;;;;0.50;0.10;;;3.80;1.00;;;;;;5072659;28;20608;-80
2022/01/14 12:27:24;;;;;;;0.50;0.10;;;3.90;1.00;;;;;;5070913;28;20502;-79
2022/01/14 12:30:02;;;;;;;0.50;0.10;;;3.90;1.00;;;;;;5074465;28;20486;-78
2022/01/14 12:32:36;;;;;;;0.50;0.10;;;3.90;1.00;;;;;;5077560;28;20506;-80
2022/01/14 12:35:14;;;;;;;0.50;0.10;;;4.00;1.00;;;;;;5080087;28;20489;-80
2022/01/14 12:37:46;;;;;;;0.50;0.10;;;4.00;1.00;;;;;;5090180;28;20562;-80
2022/01/14 12:40:17;;;;;;;0.50;0.20;;;4.00;1.00;;;;;;5081250;28;20497;-79
2022/01/14 12:42:54;;;;;;;0.50;0.20;;;4.00;1.00;;;;;;5075555;28;20468;-79
2022/01/14 12:45:35;;;;;;;3.80;3.60;;;4.00;1.00;;;;;;5080395;28;20466;-80
2022/01/14 12:48:29;;;;;;;0.50;0.10;;;4.00;1.00;;;;;;5081339;28;20435;-79
2022/01/14 12:51:05;;;;;;;0.50;0.10;;;4.10;1.00;;;;;;5079657;28;21068;-80
2022/01/14 12:53:39;;;;;;;0.50;0.10;;;4.00;1.00;;;;;;5060504;28;20880;-80
2022/01/14 12:56:16;;;;;;;0.50;0.10;;;4.00;1.00;;;;;;5060740;28;20459;-79
2022/01/14 12:58:57;;;;;;;0.50;0.30;;;4.00;1.00;;;;;;5061922;28;20436;-79
2022/01/14 13:01:30;;;;;;;0.50;0.10;;;4.00;1.00;;;;;;5060191;28;20472;-79
2022/01/14 13:04:00;;;;;;;0.60;0.40;;;3.90;1.00;;;;;;5060858;28;20468;-80
2022/01/14 13:06:29;;;;;;;0.50;0.10;;;3.90;1.00;;;;;;5063097;28;20470;-79
2022/01/14 13:08:58;;;;;;;0.60;0.40;;;3.90;1.00;;;;;;5082704;28;20439;-79
2022/01/14 13:11:26;;;;;;;0.50;0.10;;;3.90;1.00;;;;;;5086081;28;20491;-80
2022/01/14 13:14:02;;;;;;;0.50;0.10;;;3.80;1.00;;;;;;5086387;28;20510;-79
2022/01/14 13:16:44;;;;;;;0.50;0.10;;;3.80;1.00;;;;;;5076129;28;20475;-79
2022/01/14 13:19:25;;;;;;;0.50;0.10;;;3.90;1.00;;;;;;5073959;28;20438;-78
2022/01/14 13:21:54;;;;;;;0.50;0.10;;;3.90;1.00;;;;;;5081382;28;20465;-79
2022/01/14 13:24:24;;;;;;;0.50;0.10;;;3.90;1.00;;;;;;5078030;28;20497;-80
2022/01/14 13:27:05;;;;;;;0.50;0.10;;;3.90;1.00;;;;;;5073520;28;20441;-78
2022/01/14 13:29:45;;;;;;;0.50;0.10;;;4.00;1.00;;;;;;5073433;28;20515;-79
2022/01/14 13:32:16;;;;;;;0.50;0.10;;;4.00;1.00;;;;;;5059826;28;20821;-79
2022/01/14 13:34:45;;;;;;;0.50;0.10;;;4.00;1.00;;;;;;5060267;28;20528;-79
2022/01/14 13:37:14;;;;;;;0.50;0.10;;;4.00;1.00;;;;;;5064107;28;20995;-79
2022/01/14 13:39:42;;;;;;;2.00;1.23;;;4.00;1.00;;;;;;5060142;28;20567;-79
2022/01/14 13:42:25;;;;;;;0.60;0.60;;;4.00;1.00;;;;;;5071670;28;20496;-79
2022/01/14 13:45:05;;;;;;;0.50;0.10;;;4.10;1.00;;;;;;5079441;28;20491;-80
2022/01/14 13:47:35;;;;;;;0.50;0.10;;;4.00;1.00;;;;;;5080461;28;20466;-79
2022/01/14 13:50:12;;;;;;;0.50;0.10;;;4.00;1.00;;;;;;5080572;28;20478;-79
2022/01/14 13:52:43;;;;;;;0.50;0.10;;;4.00;1.00;;;;;;5081324;28;20547;-78